Moyer Aviation Incorporated

Pocono Mountains Airport

188 Airport Drive. Tobyhanna, PA 18466 

P: 570-839-7161
800-321-5890
F: 570-839-7162

Weather

Weather

Pocono Weather

KMPO 031453Z AUTO 28006KT 10SM FEW026 22/16 A3010 RMK AO2 SLP181 T02220161 51016

Allentown Weather

KABE 031451Z 27005KT 10SM FEW100 25/18 A3005 RMK AO2 SLP175 T02500183 51012

Wilkes-Barre Weather

KAVP 031454Z VRB05KT 10SM BKN030 BKN038 26/17 A3007 RMK AO2 SLP170 T02560167 51010


* required field

Contact Us